Terminal Aerodrome Forecast
Issued by NWS

Home | Current Version | Previous Version | Text Only | Print | Product List | Glossary On
Versions: 1 2 3 4 5 6 7 8 9 10 11 12 13 14 15
000
FTUS45 KABQ 221737
TAFFMN
TAF
KFMN 221737Z 2218/2318 12004KT P6SM BKN120
     FM230300 09008KT 4SM -SN BR OVC020
      TEMPO 2305/2308 2SM -SN BR OVC007
     FM230900 10009KT P6SM OVC015
     FM231600 13010KT P6SM BKN040=

USA.gov is the U.S. government's official web portal to all federal, state and local government web resources and services.